Time;durP1;ratioP1;P1;durP2;ratioP2;P2;SDS_P1;SDS_P2;PMS_P1;PMS_P2;Temp;Humidity;BMP_temperature;BMP_pressure;BME280_temperature;BME280_humidity;BME280_pressure;Samples;Min_cycle;Max_cycle;Signal;HPM_P1;HPM_P2
2022/11/13 00:01:17;;;;;;;252.00;28.70;;;5.50;99.90;;;;;;4394604;28;659625;-63
2022/11/13 00:04:05;;;;;;;350.63;29.90;;;5.60;99.90;;;;;;4413260;28;660207;-63
2022/11/13 00:06:53;;;;;;;635.27;33.67;;;5.60;99.90;;;;;;4390180;28;660666;-63
2022/11/13 00:09:40;;;;;;;391.07;31.10;;;5.60;99.90;;;;;;4394195;28;659571;-64
2022/11/13 00:12:29;;;;;;;315.00;30.87;;;5.50;99.90;;;;;;4413498;28;660902;-63
2022/11/13 00:15:16;;;;;;;407.70;28.63;;;5.50;99.90;;;;;;4394498;28;659619;-63
2022/11/13 00:18:03;;;;;;;634.90;34.53;;;5.50;99.90;;;;;;4412866;28;661056;-63
2022/11/13 00:20:50;;;;;;;431.17;30.70;;;5.50;99.90;;;;;;4394009;28;660414;-63
2022/11/13 00:23:39;;;;;;;505.73;29.63;;;5.50;99.90;;;;;;4413065;28;661036;-63
2022/11/13 00:26:27;;;;;;;455.43;31.77;;;5.50;99.90;;;;;;4393761;28;659679;-63
2022/11/13 00:29:14;;;;;;;156.43;28.33;;;5.50;99.90;;;;;;4412841;28;659910;-63
2022/11/13 00:32:01;;;;;;;334.27;29.73;;;5.50;99.90;;;;;;4394509;28;659646;-63
2022/11/13 00:34:48;;;;;;;614.72;34.63;;;5.50;99.90;;;;;;4412645;28;660721;-63
2022/11/13 00:37:35;;;;;;;723.07;36.40;;;5.40;99.90;;;;;;4393637;28;659664;-64
2022/11/13 00:40:24;;;;;;;331.87;29.77;;;5.40;99.90;;;;;;4412651;28;661426;-63
2022/11/13 00:43:11;;;;;;;296.80;28.07;;;5.40;99.90;;;;;;4394480;28;660815;-63
2022/11/13 00:45:58;;;;;;;324.97;31.90;;;5.40;99.90;;;;;;4416232;28;660509;-63
2022/11/13 00:48:45;;;;;;;257.43;29.80;;;5.40;99.90;;;;;;4397763;28;659885;-64
2022/11/13 00:51:32;;;;;;;201.77;29.07;;;5.40;99.90;;;;;;4417366;28;660429;-63
2022/11/13 00:54:19;;;;;;;293.37;29.63;;;5.40;99.90;;;;;;4413113;28;659092;-63
2022/11/13 00:57:08;;;;;;;281.33;30.40;;;5.50;99.90;;;;;;4394481;28;659642;-63
2022/11/13 00:59:55;;;;;;;299.05;34.70;;;5.50;99.90;;;;;;4399239;28;659405;-65
2022/11/13 01:02:42;;;;;;;631.22;40.97;;;5.50;99.90;;;;;;4417086;28;660622;-63
2022/11/13 01:05:29;;;;;;;510.03;31.57;;;5.50;99.90;;;;;;4413181;28;660209;-63
2022/11/13 01:08:16;;;;;;;379.20;28.77;;;5.40;99.90;;;;;;4390448;28;660162;-63
2022/11/13 01:11:08;;;;;;;533.87;32.17;;;5.50;99.90;;;;;;4413471;28;660977;-63
2022/11/13 01:13:56;;;;;;;490.90;31.13;;;5.40;99.90;;;;;;4394227;28;659933;-65
2022/11/13 01:16:44;;;;;;;167.10;27.07;;;5.40;99.90;;;;;;4412997;28;660188;-63
2022/11/13 01:19:31;;;;;;;188.23;28.47;;;5.40;99.90;;;;;;4394190;28;659604;-63
2022/11/13 01:22:18;;;;;;;252.43;29.03;;;5.50;99.90;;;;;;4417281;28;661340;-63
2022/11/13 01:25:06;;;;;;;286.60;28.37;;;5.50;99.90;;;;;;4401902;28;659894;-64
2022/11/13 01:27:53;;;;;;;252.40;28.90;;;5.50;99.90;;;;;;4412583;28;661067;-63
2022/11/13 01:30:42;;;;;;;446.75;31.73;;;5.50;99.90;;;;;;4393866;28;659982;-65
2022/11/13 01:33:29;;;;;;;341.83;29.30;;;5.50;99.90;;;;;;4412753;28;660320;-63
2022/11/13 01:36:17;;;;;;;377.27;29.27;;;5.50;99.90;;;;;;4391611;28;659864;-63
2022/11/13 01:39:04;;;;;;;565.87;31.73;;;5.40;99.90;;;;;;4412133;28;660137;-64
2022/11/13 01:41:51;;;;;;;434.77;30.13;;;5.50;99.90;;;;;;4393058;28;660035;-63
2022/11/13 01:44:46;;;;;;;374.87;29.60;;;5.40;99.90;;;;;;4412775;28;661084;-63
2022/11/13 01:47:35;;;;;;;417.77;29.63;;;5.30;99.90;;;;;;4389529;28;660011;-63
2022/11/13 01:50:22;;;;;;;225.90;24.43;;;5.40;99.90;;;;;;4388934;28;661102;-63
2022/11/13 01:53:09;;;;;;;115.40;24.20;;;5.50;99.90;;;;;;4411833;28;660375;-63
2022/11/13 01:55:56;;;;;;;106.70;24.40;;;5.50;99.90;;;;;;4386351;28;661216;-63
2022/11/13 01:58:45;;;;;;;162.87;24.00;;;5.40;99.90;;;;;;4407992;28;660581;-63
2022/11/13 02:01:32;;;;;;;174.47;22.57;;;5.50;99.90;;;;;;4389538;28;661005;-63
2022/11/13 02:04:20;;;;;;;201.17;24.63;;;5.40;99.90;;;;;;4410763;28;660319;-63
2022/11/13 02:07:08;;;;;;;120.23;23.57;;;5.30;99.90;;;;;;4389348;28;660489;-63
2022/11/13 02:09:56;;;;;;;153.77;27.77;;;5.40;99.90;;;;;;4386928;28;659499;-65
2022/11/13 02:12:46;;;;;;;167.03;24.80;;;5.40;99.90;;;;;;4412064;28;662000;-63
2022/11/13 02:15:33;;;;;;;164.77;28.10;;;5.30;99.90;;;;;;4389666;28;660814;-63
2022/11/13 02:18:20;;;;;;;70.93;19.93;;;5.20;99.90;;;;;;4393114;28;660157;-64
2022/11/13 02:21:16;;;;;;;61.73;20.43;;;5.20;99.90;;;;;;4413172;28;660055;-63
2022/11/13 02:24:13;;;;;;;96.07;21.73;;;5.20;99.90;;;;;;4390476;28;659021;-63
2022/11/13 02:27:01;;;;;;;83.53;19.53;;;5.10;99.90;;;;;;4365050;28;658603;-64
2022/11/13 02:29:48;;;;;;;97.77;20.33;;;5.20;99.90;;;;;;4413163;28;659336;-63
2022/11/13 02:32:36;;;;;;;85.23;22.00;;;5.10;99.90;;;;;;4394292;28;659013;-63
2022/11/13 02:35:25;;;;;;;73.03;21.30;;;5.10;99.90;;;;;;4413172;28;659601;-63
2022/11/13 02:38:12;;;;;;;90.30;19.67;;;5.10;99.90;;;;;;4385723;28;660546;-63
2022/11/13 02:41:01;;;;;;;70.63;20.50;;;5.10;99.90;;;;;;4406868;28;659277;-65
2022/11/13 02:43:48;;;;;;;131.40;22.33;;;5.10;99.90;;;;;;4395669;28;659410;-63
2022/11/13 02:46:36;;;;;;;82.17;22.57;;;5.10;99.90;;;;;;4375647;28;659794;-63
2022/11/13 02:49:23;;;;;;;96.40;24.70;;;5.10;99.90;;;;;;4400040;28;659310;-63
2022/11/13 02:52:10;;;;;;;88.07;22.03;;;5.20;99.90;;;;;;4384462;28;660360;-64
2022/11/13 02:54:57;;;;;;;82.68;22.35;;;5.20;99.90;;;;;;4403085;28;658583;-63
2022/11/13 02:57:46;;;;;;;111.97;22.93;;;5.20;99.90;;;;;;4400992;28;659804;-63
2022/11/13 03:00:33;;;;;;;105.67;23.80;;;5.20;99.90;;;;;;4486547;28;660824;-64
2022/11/13 03:03:20;;;;;;;80.28;22.35;;;5.20;99.90;;;;;;4782131;28;536335;-64
2022/11/13 03:06:07;;;;;;;192.68;24.13;;;5.20;99.90;;;;;;4419722;28;659370;-63
2022/11/13 03:08:54;;;;;;;96.97;21.63;;;5.20;99.90;;;;;;4413919;28;660190;-63
2022/11/13 03:11:43;;;;;;;71.37;21.23;;;5.10;99.90;;;;;;4396800;28;658456;-63
2022/11/13 03:14:31;;;;;;;113.10;22.33;;;5.10;99.90;;;;;;4401234;28;659344;-64
2022/11/13 03:17:19;;;;;;;72.93;22.03;;;5.10;99.90;;;;;;4414188;28;660292;-63
2022/11/13 03:20:06;;;;;;;126.43;22.43;;;5.10;99.90;;;;;;4396516;28;659270;-64
2022/11/13 03:22:53;;;;;;;106.97;22.07;;;5.10;99.90;;;;;;4413769;28;661051;-63
2022/11/13 03:25:40;;;;;;;116.30;22.03;;;5.10;99.90;;;;;;4394925;28;659236;-63
2022/11/13 03:28:27;;;;;;;126.87;22.93;;;5.10;99.90;;;;;;4413998;28;660994;-63
2022/11/13 03:31:16;;;;;;;91.97;20.27;;;5.10;99.90;;;;;;4412643;28;659783;-65
2022/11/13 03:34:04;;;;;;;123.10;21.37;;;5.10;99.90;;;;;;4404644;28;659688;-63
2022/11/13 03:36:51;;;;;;;104.07;21.70;;;5.00;99.90;;;;;;4394914;28;660690;-63
2022/11/13 03:39:38;;;;;;;67.17;21.23;;;5.00;99.90;;;;;;4417797;28;661095;-63
2022/11/13 03:42:25;;;;;;;78.43;21.93;;;5.00;99.90;;;;;;4404950;28;658542;-65
2022/11/13 03:45:12;;;;;;;88.60;22.35;;;5.00;99.90;;;;;;4419919;28;659037;-63
2022/11/13 03:48:01;;;;;;;116.47;23.73;;;5.00;99.90;;;;;;4415623;28;658432;-63
2022/11/13 03:50:49;;;;;;;80.43;25.10;;;5.10;99.90;;;;;;4391575;28;660526;-63
2022/11/13 03:53:36;;;;;;;80.53;23.97;;;5.10;99.90;;;;;;4394300;28;658385;-63
2022/11/13 03:56:23;;;;;;;84.30;22.97;;;5.10;99.90;;;;;;4414593;28;659438;-63
2022/11/13 03:59:10;;;;;;;79.50;21.43;;;5.10;99.90;;;;;;4390996;28;658487;-64
2022/11/13 04:01:57;;;;;;;83.00;21.90;;;5.10;99.90;;;;;;4413738;28;659951;-63
2022/11/13 04:04:46;;;;;;;69.40;21.83;;;5.10;99.90;;;;;;4414459;28;658192;-64
2022/11/13 04:07:33;;;;;;;95.13;22.37;;;5.10;99.90;;;;;;4414584;28;659635;-63
2022/11/13 04:10:21;;;;;;;70.90;20.23;;;5.10;99.90;;;;;;4395688;28;658733;-63
2022/11/13 04:13:08;;;;;;;110.40;22.70;;;5.10;99.90;;;;;;4414600;28;659314;-63
2022/11/13 04:15:55;;;;;;;77.63;22.57;;;5.10;99.90;;;;;;4396430;28;661040;-64
2022/11/13 04:18:42;;;;;;;145.88;22.67;;;5.10;99.90;;;;;;4418367;28;659928;-63
2022/11/13 04:21:31;;;;;;;113.97;22.67;;;5.10;99.90;;;;;;4413307;28;658963;-64
2022/11/13 04:24:18;;;;;;;118.07;22.83;;;5.10;99.90;;;;;;4390803;28;660570;-63
2022/11/13 04:27:05;;;;;;;189.80;23.57;;;5.10;99.90;;;;;;4403206;28;659792;-64
2022/11/13 04:29:52;;;;;;;206.65;23.90;;;5.10;99.90;;;;;;4416881;28;660262;-63
2022/11/13 04:32:39;;;;;;;328.43;26.93;;;5.10;99.90;;;;;;4412634;28;660036;-63
2022/11/13 04:35:26;;;;;;;305.33;25.73;;;5.10;99.90;;;;;;4389878;28;660005;-63
2022/11/13 04:38:15;;;;;;;157.73;24.77;;;5.10;99.90;;;;;;4408364;28;661119;-63
2022/11/13 04:44:06;;;;;;;208.83;25.13;;;5.10;99.90;;;;;;4371034;28;659810;-64
2022/11/13 04:46:53;;;;;;;145.43;24.50;;;5.20;99.90;;;;;;4412519;28;661227;-63
2022/11/13 04:49:40;;;;;;;178.77;26.53;;;5.20;99.90;;;;;;4393514;28;659640;-63
2022/11/13 04:52:28;;;;;;;131.03;25.60;;;5.10;99.90;;;;;;4412385;28;660990;-63
2022/11/13 04:55:16;;;;;;;137.57;24.70;;;5.10;99.90;;;;;;4393536;28;659574;-64
2022/11/13 04:58:04;;;;;;;340.17;26.50;;;5.10;99.90;;;;;;4412166;28;659874;-63
2022/11/13 05:00:51;;;;;;;310.50;27.20;;;5.10;99.90;;;;;;4564335;28;659783;-63
2022/11/13 05:03:38;;;;;;;242.67;29.20;;;5.10;99.90;;;;;;4712525;28;536914;-63
2022/11/13 05:06:25;;;;;;;678.42;34.40;;;5.10;99.90;;;;;;4398793;28;659897;-65
2022/11/13 05:09:12;;;;;;;308.53;27.37;;;5.10;99.90;;;;;;4416349;28;660646;-63
2022/11/13 05:12:01;;;;;;;192.83;25.33;;;5.10;99.90;;;;;;4412046;28;659308;-63
2022/11/13 05:14:48;;;;;;;174.90;25.10;;;5.10;99.90;;;;;;4389530;28;660364;-63
2022/11/13 05:17:35;;;;;;;490.27;27.90;;;5.20;99.90;;;;;;4396489;28;660027;-65
2022/11/13 05:20:22;;;;;;;294.95;27.63;;;5.20;99.90;;;;;;4416057;28;659901;-63
2022/11/13 05:23:09;;;;;;;589.63;35.20;;;5.20;99.90;;;;;;4411726;28;660098;-63
2022/11/13 05:26:01;;;;;;;603.20;33.90;;;5.20;99.90;;;;;;4393028;28;660032;-63
2022/11/13 05:28:50;;;;;;;502.90;28.93;;;5.20;99.90;;;;;;4389252;28;661315;-63
2022/11/13 05:31:37;;;;;;;210.17;26.93;;;5.10;99.90;;;;;;4389101;28;660457;-63
2022/11/13 05:34:24;;;;;;;548.20;33.03;;;5.10;99.90;;;;;;4411900;28;659868;-64
2022/11/13 05:37:11;;;;;;;394.70;28.27;;;5.20;99.90;;;;;;4392876;28;659592;-63
2022/11/13 05:39:58;;;;;;;357.03;28.43;;;5.20;99.90;;;;;;4411787;28;660816;-63
2022/11/13 05:42:45;;;;;;;384.07;29.53;;;5.20;99.90;;;;;;4393217;28;659614;-65
2022/11/13 05:45:33;;;;;;;269.40;29.60;;;5.20;99.90;;;;;;4416768;28;659815;-63
2022/11/13 05:48:21;;;;;;;584.47;34.23;;;5.30;99.90;;;;;;4393605;28;659779;-64
2022/11/13 05:51:09;;;;;;;632.67;35.43;;;5.20;99.90;;;;;;4416666;28;661368;-63
2022/11/13 05:53:56;;;;;;;370.57;31.33;;;5.20;99.90;;;;;;4393590;28;659621;-63
2022/11/13 05:56:43;;;;;;;495.07;31.50;;;5.20;99.90;;;;;;4412561;28;661333;-63
2022/11/13 05:59:30;;;;;;;794.37;36.73;;;5.10;99.90;;;;;;4376463;28;660444;-64
2022/11/13 06:02:19;;;;;;;561.43;33.10;;;5.20;99.90;;;;;;4395092;28;660990;-63
2022/11/13 06:05:07;;;;;;;721.03;33.55;;;5.20;99.90;;;;;;4371378;28;659766;-64
2022/11/13 06:07:54;;;;;;;379.70;30.10;;;5.20;99.90;;;;;;4393032;28;660579;-63
2022/11/13 06:10:41;;;;;;;212.13;28.00;;;5.20;99.90;;;;;;4376001;28;659467;-63
2022/11/13 06:13:28;;;;;;;486.93;31.67;;;5.20;99.90;;;;;;4395200;28;660621;-63
2022/11/13 06:16:16;;;;;;;912.60;38.80;;;5.20;99.90;;;;;;4376261;28;659927;-64
2022/11/13 06:19:07;;;;;;;661.53;32.07;;;5.20;99.90;;;;;;4395022;28;660390;-63
2022/11/13 06:21:54;;;;;;;506.70;29.77;;;5.20;99.90;;;;;;4365361;28;661000;-62
2022/11/13 06:24:42;;;;;;;811.20;36.77;;;5.20;99.90;;;;;;4375333;28;660144;-63
2022/11/13 06:27:29;;;;;;;807.63;39.00;;;5.20;99.90;;;;;;4394539;28;660215;-64
2022/11/13 06:30:16;;;;;;;442.60;32.87;;;5.20;99.90;;;;;;4371879;28;659875;-63
2022/11/13 06:33:03;;;;;;;603.20;34.40;;;5.20;99.90;;;;;;4394870;28;660645;-63
2022/11/13 06:35:51;;;;;;;597.90;32.90;;;5.20;99.90;;;;;;4375669;28;661473;-65
2022/11/13 06:38:39;;;;;;;809.87;39.27;;;5.20;99.90;;;;;;4394603;28;660654;-63
2022/11/13 06:41:28;;;;;;;617.03;34.63;;;5.30;99.90;;;;;;4375415;28;659667;-64
2022/11/13 06:44:15;;;;;;;666.07;33.20;;;5.30;99.90;;;;;;4374880;28;659885;-65
2022/11/13 06:47:02;;;;;;;735.17;35.28;;;5.30;99.90;;;;;;4397028;28;659318;-63
2022/11/13 06:49:49;;;;;;;907.87;40.53;;;5.30;99.90;;;;;;4393213;28;660062;-63
2022/11/13 06:52:38;;;;;;;969.33;40.80;;;5.20;99.90;;;;;;4371084;28;659717;-63
2022/11/13 06:55:25;;;;;;;859.80;40.63;;;5.20;99.90;;;;;;4385111;28;659762;-65
2022/11/13 06:58:12;;;;;;;1135.53;49.70;;;5.30;99.90;;;;;;4398465;28;659494;-63
2022/11/13 07:01:05;;;;;;;891.67;39.60;;;5.30;99.90;;;;;;4582289;28;661349;-63
2022/11/13 07:03:52;;;;;;;534.83;34.90;;;5.40;99.90;;;;;;4637028;28;537039;-63
2022/11/13 07:06:39;;;;;;;498.23;36.47;;;5.30;99.90;;;;;;4395377;28;660249;-63
2022/11/13 07:09:28;;;;;;;617.73;34.10;;;5.40;99.90;;;;;;4376022;28;659850;-64
2022/11/13 07:12:15;;;;;;;554.03;36.23;;;5.40;99.90;;;;;;4390232;28;659936;-65
2022/11/13 07:15:02;;;;;;;552.08;36.60;;;5.50;99.90;;;;;;4399489;28;659453;-63
2022/11/13 07:17:49;;;;;;;548.13;36.43;;;5.50;99.90;;;;;;4394656;28;659410;-63
2022/11/13 07:20:36;;;;;;;479.03;31.30;;;5.60;99.90;;;;;;4372501;28;661037;-63
2022/11/13 07:23:23;;;;;;;550.07;34.57;;;5.50;99.90;;;;;;4394931;28;660847;-63
2022/11/13 07:26:12;;;;;;;370.63;30.20;;;5.60;99.90;;;;;;4376177;28;659849;-63
2022/11/13 07:28:59;;;;;;;539.67;31.67;;;5.70;99.90;;;;;;4395222;28;659885;-63
2022/11/13 07:31:46;;;;;;;452.37;29.70;;;5.70;99.90;;;;;;4375725;28;659903;-63
2022/11/13 07:34:33;;;;;;;259.83;27.93;;;5.80;99.90;;;;;;4394707;28;661374;-63
2022/11/13 07:37:20;;;;;;;235.43;28.77;;;5.80;99.90;;;;;;4378940;28;660376;-65
2022/11/13 07:40:08;;;;;;;321.13;27.10;;;5.90;99.90;;;;;;4398317;28;661346;-63
2022/11/13 07:43:00;;;;;;;230.03;25.33;;;5.90;99.90;;;;;;4392165;28;659486;-64
2022/11/13 07:45:53;;;;;;;138.20;27.13;;;5.90;99.90;;;;;;4390235;28;660256;-63
2022/11/13 07:48:40;;;;;;;283.17;27.50;;;6.00;99.90;;;;;;4377901;28;659592;-64
2022/11/13 07:51:27;;;;;;;733.88;36.03;;;6.00;99.90;;;;;;4417376;28;660221;-63
2022/11/13 07:54:14;;;;;;;483.23;31.17;;;5.90;99.90;;;;;;4413379;28;660456;-63
2022/11/13 07:57:01;;;;;;;591.97;37.53;;;6.00;99.90;;;;;;4390110;28;660327;-63
2022/11/13 07:59:50;;;;;;;246.23;30.53;;;6.00;99.90;;;;;;4406476;28;660848;-64
2022/11/13 08:02:37;;;;;;;263.60;32.13;;;6.10;99.90;;;;;;4391514;28;661366;-63
2022/11/13 08:05:24;;;;;;;148.33;30.90;;;6.10;99.90;;;;;;4414389;28;659822;-63
2022/11/13 08:08:12;;;;;;;401.10;30.07;;;6.20;99.90;;;;;;4395674;28;659889;-63
2022/11/13 08:10:59;;;;;;;534.60;34.27;;;6.30;99.90;;;;;;4414108;28;660198;-63
2022/11/13 08:13:46;;;;;;;279.13;28.07;;;6.30;99.90;;;;;;4394978;28;659667;-64
2022/11/13 08:16:34;;;;;;;306.60;27.87;;;6.40;99.90;;;;;;4416021;28;661508;-63
2022/11/13 08:19:21;;;;;;;254.40;27.87;;;6.30;99.90;;;;;;4392534;28;659887;-63
2022/11/13 08:22:08;;;;;;;165.47;25.63;;;6.30;99.90;;;;;;4414003;28;659601;-63
2022/11/13 08:24:56;;;;;;;180.40;26.50;;;6.40;99.90;;;;;;4394676;28;659459;-63
2022/11/13 08:27:43;;;;;;;240.40;27.30;;;6.50;99.90;;;;;;4413947;28;661075;-63
2022/11/13 08:30:30;;;;;;;95.17;25.60;;;6.50;99.90;;;;;;4395111;28;660507;-63
2022/11/13 08:33:19;;;;;;;145.97;27.57;;;6.40;99.90;;;;;;4415041;28;659730;-63
2022/11/13 08:36:06;;;;;;;124.23;28.43;;;6.60;99.90;;;;;;4394799;28;660365;-64
2022/11/13 08:38:53;;;;;;;307.80;29.80;;;6.60;99.90;;;;;;4414106;28;660847;-63
2022/11/13 08:41:40;;;;;;;165.68;28.00;;;6.70;99.90;;;;;;4394700;28;659936;-65
2022/11/13 08:44:27;;;;;;;170.33;28.77;;;6.70;99.90;;;;;;4417848;28;661067;-64
2022/11/13 08:47:14;;;;;;;300.10;32.33;;;6.70;99.90;;;;;;4413367;28;660022;-63
2022/11/13 08:50:03;;;;;;;106.20;31.07;;;6.70;99.90;;;;;;4394557;28;660562;-63
2022/11/13 08:52:54;;;;;;;136.17;31.07;;;6.90;99.90;;;;;;4394259;28;660280;-63
2022/11/13 08:55:41;;;;;;;81.07;27.80;;;6.90;99.90;;;;;;4394788;28;659707;-64
2022/11/13 08:58:28;;;;;;;84.33;28.20;;;7.00;99.90;;;;;;4414363;28;659307;-64
2022/11/13 09:01:15;;;;;;;78.03;28.07;;;7.10;99.90;;;;;;4659073;28;659458;-63
2022/11/13 09:04:02;;;;;;;182.40;30.27;;;7.30;99.90;;;;;;4617602;28;535455;-63
2022/11/13 09:06:51;;;;;;;138.57;31.27;;;7.30;99.90;;;;;;4406334;28;660912;-63
2022/11/13 09:09:38;;;;;;;175.90;32.13;;;7.40;99.90;;;;;;4390427;28;660733;-63
2022/11/13 09:12:25;;;;;;;120.70;32.87;;;7.30;99.90;;;;;;4394369;28;659635;-65
2022/11/13 09:15:12;;;;;;;91.72;30.55;;;7.20;99.90;;;;;;4417290;28;660199;-63
2022/11/13 09:18:00;;;;;;;87.27;30.20;;;7.30;99.90;;;;;;4414451;28;658353;-63
2022/11/13 09:20:47;;;;;;;106.43;31.30;;;7.30;99.90;;;;;;4391321;28;660245;-64
2022/11/13 09:23:35;;;;;;;127.47;30.92;;;7.40;99.90;;;;;;4410040;28;660358;-63
2022/11/13 09:26:22;;;;;;;93.07;28.93;;;7.30;99.90;;;;;;4391062;28;660854;-63
2022/11/13 09:29:10;;;;;;;79.10;28.13;;;7.30;99.90;;;;;;4413918;28;658206;-63
2022/11/13 09:31:57;;;;;;;77.90;28.57;;;7.30;99.90;;;;;;4391401;28;659935;-64
2022/11/13 09:34:44;;;;;;;93.07;28.77;;;7.40;99.90;;;;;;4413944;28;658384;-63
2022/11/13 09:37:31;;;;;;;97.10;28.40;;;7.50;99.90;;;;;;4393479;28;660253;-63
2022/11/13 09:40:26;;;;;;;100.50;30.63;;;7.40;99.90;;;;;;4413664;28;659469;-63
2022/11/13 09:43:23;;;;;;;107.50;29.70;;;7.40;99.90;;;;;;4384488;28;660630;-63
2022/11/13 09:46:15;;;;;;;111.90;30.23;;;7.30;99.90;;;;;;4370213;28;660804;-64
2022/11/13 09:49:04;;;;;;;95.70;30.20;;;7.30;99.90;;;;;;4392987;28;659794;-63
2022/11/13 09:51:52;;;;;;;108.87;31.63;;;7.40;99.90;;;;;;4393693;28;658737;-64
2022/11/13 09:54:39;;;;;;;92.47;30.83;;;7.30;99.90;;;;;;4411466;28;659288;-63
2022/11/13 09:57:31;;;;;;;95.63;32.23;;;7.30;99.90;;;;;;4387352;28;658578;-63
2022/11/13 10:00:19;;;;;;;80.67;29.07;;;7.40;99.90;;;;;;4386464;28;659780;-64
2022/11/13 10:03:18;;;;;;;91.17;31.97;;;7.40;99.90;;;;;;4389345;28;658655;-63
2022/11/13 10:06:11;;;;;;;94.80;34.17;;;7.50;99.90;;;;;;4371354;28;660455;-64
2022/11/13 10:09:01;;;;;;;93.38;32.58;;;7.70;99.90;;;;;;4387961;28;658872;-63
2022/11/13 10:11:50;;;;;;;86.85;33.15;;;7.70;99.90;;;;;;4390881;28;660117;-63
2022/11/13 10:14:41;;;;;;;67.53;26.70;;;7.90;99.90;;;;;;4395085;28;659963;-63
2022/11/13 10:17:31;;;;;;;79.63;29.13;;;7.90;99.90;;;;;;4390401;28;660083;-63
2022/11/13 10:20:21;;;;;;;82.23;29.10;;;8.00;99.90;;;;;;4389433;28;659255;-63
2022/11/13 10:23:12;;;;;;;81.00;28.27;;;8.00;99.90;;;;;;4390632;28;659713;-63
2022/11/13 10:26:06;;;;;;;76.27;28.20;;;7.90;99.90;;;;;;4390530;28;659230;-63
2022/11/13 10:28:56;;;;;;;81.67;29.97;;;8.00;99.90;;;;;;4390712;28;658423;-63
2022/11/13 10:31:46;;;;;;;71.70;27.40;;;8.20;99.90;;;;;;4390305;28;660224;-63
2022/11/13 10:34:33;;;;;;;80.43;29.60;;;8.30;99.90;;;;;;4390620;28;660137;-63
2022/11/13 10:37:27;;;;;;;74.73;28.07;;;8.40;99.90;;;;;;4394717;28;658383;-65
2022/11/13 10:40:24;;;;;;;80.20;30.27;;;8.40;99.90;;;;;;4390578;28;659754;-63
2022/11/13 10:43:14;;;;;;;73.63;29.37;;;8.50;99.90;;;;;;4367698;28;659695;-63
2022/11/13 10:46:02;;;;;;;90.77;33.00;;;8.20;99.90;;;;;;4393857;28;658892;-63
2022/11/13 10:48:50;;;;;;;90.47;32.37;;;8.10;99.90;;;;;;4405269;28;659109;-63
2022/11/13 10:51:38;;;;;;;86.43;31.37;;;8.10;99.90;;;;;;4386598;28;660219;-63
2022/11/13 10:54:27;;;;;;;86.03;33.03;;;8.40;99.90;;;;;;4392790;28;658626;-64
2022/11/13 10:57:33;;;;;;;87.93;32.87;;;8.60;99.90;;;;;;4410198;28;658616;-63
2022/11/13 11:00:23;;;;;;;78.87;29.97;;;8.90;99.90;;;;;;4447482;28;659135;-63
2022/11/13 11:03:14;;;;;;;78.47;30.90;;;9.00;99.90;;;;;;4813798;28;535371;-65
2022/11/13 11:06:04;;;;;;;80.00;30.70;;;9.20;99.90;;;;;;4393832;28;658727;-64
2022/11/13 11:08:51;;;;;;;76.07;31.13;;;9.70;99.90;;;;;;4394151;28;659396;-64
2022/11/13 11:14:49;;;;;;;68.87;29.03;;;10.90;99.90;;;;;;4392182;28;660020;-64
2022/11/13 11:17:39;;;;;;;66.03;28.23;;;11.80;99.90;;;;;;4369190;28;660889;-65
2022/11/13 11:20:35;;;;;;;74.57;30.13;;;12.30;99.90;;;;;;4396308;28;659669;-64
2022/11/13 11:23:27;;;;;;;65.87;29.87;;;12.70;99.90;;;;;;4368993;28;659996;-64
2022/11/13 11:26:16;;;;;;;73.83;30.40;;;13.30;99.90;;;;;;4391932;28;660355;-64
2022/11/13 11:29:12;;;;;;;64.97;30.73;;;13.20;99.90;;;;;;4392032;28;660786;-64
2022/11/13 11:32:01;;;;;;;73.17;32.77;;;13.10;99.90;;;;;;4388961;28;661281;-65
2022/11/13 11:34:50;;;;;;;65.93;30.50;;;12.70;99.90;;;;;;4414559;28;659998;-63
2022/11/13 11:37:40;;;;;;;72.60;31.67;;;12.50;99.90;;;;;;4392007;28;661563;-64
2022/11/13 11:40:30;;;;;;;69.97;31.20;;;12.10;99.90;;;;;;4391783;28;660619;-63
2022/11/13 11:43:19;;;;;;;69.97;31.13;;;12.00;99.90;;;;;;4395818;28;660224;-63
2022/11/13 11:46:10;;;;;;;66.33;30.80;;;12.50;99.90;;;;;;4396043;28;660759;-64
2022/11/13 11:48:59;;;;;;;65.13;30.27;;;13.40;99.90;;;;;;4396027;28;660870;-64
2022/11/13 11:51:52;;;;;;;64.30;31.20;;;14.20;99.90;;;;;;4395159;28;659822;-63
2022/11/13 11:54:42;;;;;;;68.93;31.60;;;14.90;99.90;;;;;;4371367;28;659737;-65
2022/11/13 11:57:39;;;;;;;64.97;32.03;;;15.70;99.90;;;;;;4414303;28;659768;-64
2022/11/13 12:00:26;;;;;;;67.10;32.87;;;16.00;98.20;;;;;;4395301;28;660121;-64
2022/11/13 12:03:43;;;;;;;62.80;31.13;;;16.60;91.80;;;;;;4414306;28;661232;-64
2022/11/13 12:06:37;;;;;;;61.70;31.57;;;16.70;92.60;;;;;;4373606;28;659531;-64
2022/11/13 12:09:26;;;;;;;63.10;31.23;;;17.10;90.30;;;;;;4391341;28;661054;-64
2022/11/13 12:12:17;;;;;;;61.83;30.80;;;17.70;88.80;;;;;;4391618;28;660637;-64
2022/11/13 12:15:09;;;;;;;62.60;31.07;;;17.90;84.50;;;;;;4391364;28;660052;-64
2022/11/13 12:18:02;;;;;;;58.27;30.23;;;18.30;80.50;;;;;;4388924;28;660145;-64
2022/11/13 12:20:53;;;;;;;58.60;30.90;;;18.40;76.90;;;;;;4413778;28;659938;-65
2022/11/13 12:23:52;;;;;;;59.00;31.30;;;19.00;74.70;;;;;;4394508;28;661106;-65
2022/11/13 12:26:42;;;;;;;59.77;31.07;;;19.70;71.60;;;;;;4391253;28;659972;-64
2022/11/13 12:29:38;;;;;;;59.07;30.20;;;19.30;68.60;;;;;;4391171;28;659694;-64
2022/11/13 12:32:45;;;;;;;57.87;30.37;;;19.40;69.10;;;;;;4379479;28;659215;-66
2022/11/13 12:35:32;;;;;;;55.87;30.40;;;19.80;66.00;;;;;;4368903;28;659847;-63
2022/11/13 12:38:25;;;;;;;56.07;29.50;;;19.70;65.30;;;;;;4413993;28;659983;-63
2022/11/13 12:41:16;;;;;;;57.77;29.50;;;18.80;69.00;;;;;;4394700;28;659744;-64
2022/11/13 12:44:21;;;;;;;60.07;30.27;;;18.00;70.60;;;;;;4390895;28;660750;-63
2022/11/13 12:47:08;;;;;;;59.60;31.10;;;17.50;72.00;;;;;;4391053;28;660416;-64
2022/11/13 12:50:00;;;;;;;61.20;30.73;;;17.30;76.30;;;;;;4404663;28;659576;-65
2022/11/13 12:52:58;;;;;;;61.53;30.50;;;17.10;73.50;;;;;;4390672;28;661394;-64
2022/11/13 12:55:58;;;;;;;57.10;28.70;;;18.20;72.70;;;;;;4375136;28;659539;-65
2022/11/13 12:58:53;;;;;;;57.60;29.10;;;18.20;70.30;;;;;;4367521;28;659833;-65
2022/11/13 13:01:43;;;;;;;52.60;27.53;;;18.50;69.10;;;;;;4730669;28;659471;-63
2022/11/13 13:04:40;;;;;;;59.70;29.33;;;18.60;68.60;;;;;;4504162;28;537069;-63
2022/11/13 13:07:40;;;;;;;61.00;29.80;;;19.10;66.30;;;;;;4366643;28;660559;-64
2022/11/13 13:10:30;;;;;;;58.97;28.93;;;18.70;67.30;;;;;;4366353;28;660701;-64
2022/11/13 13:13:20;;;;;;;58.27;29.90;;;19.10;66.40;;;;;;4389683;28;661625;-64
2022/11/13 13:16:07;;;;;;;58.97;29.87;;;19.50;64.50;;;;;;4389672;28;661665;-63
2022/11/13 13:19:05;;;;;;;68.87;32.87;;;19.60;64.50;;;;;;4412395;28;660837;-63
2022/11/13 13:21:52;;;;;;;61.33;32.03;;;19.90;62.40;;;;;;4363503;28;661041;-63
2022/11/13 13:24:41;;;;;;;63.03;31.47;;;20.60;60.90;;;;;;4409092;28;659483;-65
2022/11/13 13:27:29;;;;;;;57.13;30.33;;;20.10;60.90;;;;;;4411963;28;659784;-63
2022/11/13 13:30:19;;;;;;;60.90;29.37;;;19.80;62.00;;;;;;4389016;28;661123;-63
2022/11/13 13:33:16;;;;;;;62.53;29.03;;;19.70;61.00;;;;;;4392335;28;660929;-63
2022/11/13 13:36:10;;;;;;;59.63;29.33;;;19.80;60.20;;;;;;4388729;28;660015;-63
2022/11/13 13:39:00;;;;;;;61.43;30.13;;;19.50;61.50;;;;;;4366052;28;660922;-63
2022/11/13 13:42:01;;;;;;;58.87;28.43;;;19.70;62.90;;;;;;4388936;28;661000;-64
2022/11/13 13:44:57;;;;;;;55.97;28.83;;;20.10;60.90;;;;;;4389033;28;659929;-64
2022/11/13 13:47:46;;;;;;;62.72;30.08;;;20.40;59.60;;;;;;4384920;28;660034;-65
2022/11/13 13:50:38;;;;;;;64.97;30.77;;;20.00;59.50;;;;;;4411577;28;659891;-64
2022/11/13 13:53:27;;;;;;;62.47;29.50;;;19.20;60.70;;;;;;4369767;28;659881;-64
2022/11/13 13:56:14;;;;;;;60.77;29.27;;;19.00;61.50;;;;;;4411739;28;659659;-63
2022/11/13 13:59:03;;;;;;;60.90;30.93;;;18.70;61.90;;;;;;4387271;28;659706;-64
2022/11/13 14:01:54;;;;;;;60.67;29.23;;;19.00;62.30;;;;;;4399087;28;659776;-65
2022/11/13 14:04:44;;;;;;;62.13;30.00;;;18.10;62.90;;;;;;4393493;28;659616;-64
2022/11/13 14:07:32;;;;;;;62.37;29.97;;;18.10;64.90;;;;;;4393704;28;659529;-64
2022/11/13 14:10:20;;;;;;;60.63;30.13;;;18.00;65.30;;;;;;4412187;28;660288;-64
2022/11/13 14:13:11;;;;;;;61.07;30.27;;;17.40;65.80;;;;;;4389427;28;660505;-64
2022/11/13 14:16:04;;;;;;;65.27;30.40;;;17.50;66.00;;;;;;4389314;28;661616;-63